sensor_id;sensor_type;location;lat;lon;timestamp;temperature;humidity
16736;DHT22;17990;49.548;9.730;2022-11-03T00:00:22;4.10;99.90
16736;DHT22;17990;49.548;9.730;2022-11-03T00:02:49;4.10;99.90
16736;DHT22;17990;49.548;9.730;2022-11-03T00:05:16;4.10;99.90
16736;DHT22;17990;49.548;9.730;2022-11-03T00:08:01;4.20;99.90
16736;DHT22;17990;49.548;9.730;2022-11-03T00:10:29;4.10;99.90
16736;DHT22;17990;49.548;9.730;2022-11-03T00:12:58;4.10;99.90
16736;DHT22;17990;49.548;9.730;2022-11-03T00:15:25;4.10;99.90
16736;DHT22;17990;49.548;9.730;2022-11-03T00:17:51;4.00;99.90
16736;DHT22;17990;49.548;9.730;2022-11-03T00:20:18;4.00;99.90
16736;DHT22;17990;49.548;9.730;2022-11-03T00:22:45;4.00;99.90
16736;DHT22;17990;49.548;9.730;2022-11-03T00:25:12;3.90;99.90
16736;DHT22;17990;49.548;9.730;2022-11-03T00:27:39;3.90;99.90
16736;DHT22;17990;49.548;9.730;2022-11-03T00:30:09;3.90;99.90
16736;DHT22;17990;49.548;9.730;2022-11-03T00:32:36;3.90;99.90
16736;DHT22;17990;49.548;9.730;2022-11-03T00:35:04;3.90;99.90
16736;DHT22;17990;49.548;9.730;2022-11-03T00:37:31;3.90;99.90
16736;DHT22;17990;49.548;9.730;2022-11-03T00:39:58;3.90;99.90
16736;DHT22;17990;49.548;9.730;2022-11-03T00:42:25;3.90;99.90
16736;DHT22;17990;49.548;9.730;2022-11-03T00:44:52;3.90;99.90
16736;DHT22;17990;49.548;9.730;2022-11-03T00:47:20;3.90;99.90
16736;DHT22;17990;49.548;9.730;2022-11-03T00:49:47;3.90;99.90
16736;DHT22;17990;49.548;9.730;2022-11-03T00:52:14;3.90;99.90
16736;DHT22;17990;49.548;9.730;2022-11-03T00:54:41;3.90;99.90
16736;DHT22;17990;49.548;9.730;2022-11-03T00:57:08;3.90;99.90
16736;DHT22;17990;49.548;9.730;2022-11-03T00:59:34;3.90;99.90
16736;DHT22;17990;49.548;9.730;2022-11-03T01:02:01;3.90;99.90
16736;DHT22;17990;49.548;9.730;2022-11-03T01:04:29;3.80;99.90
16736;DHT22;17990;49.548;9.730;2022-11-03T01:07:14;3.80;99.90
16736;DHT22;17990;49.548;9.730;2022-11-03T01:09:41;3.80;99.90
16736;DHT22;17990;49.548;9.730;2022-11-03T01:12:10;3.80;99.90
16736;DHT22;17990;49.548;9.730;2022-11-03T01:14:40;3.70;99.90
16736;DHT22;17990;49.548;9.730;2022-11-03T01:17:10;3.70;99.90
16736;DHT22;17990;49.548;9.730;2022-11-03T01:19:39;3.60;99.90
16736;DHT22;17990;49.548;9.730;2022-11-03T01:22:06;3.60;99.90
16736;DHT22;17990;49.548;9.730;2022-11-03T01:24:33;3.50;99.90
16736;DHT22;17990;49.548;9.730;2022-11-03T01:27:01;3.50;99.90
16736;DHT22;17990;49.548;9.730;2022-11-03T01:29:28;3.50;99.90
16736;DHT22;17990;49.548;9.730;2022-11-03T01:31:55;3.50;99.90
16736;DHT22;17990;49.548;9.730;2022-11-03T01:34:21;3.50;99.90
16736;DHT22;17990;49.548;9.730;2022-11-03T01:36:50;3.50;99.90
16736;DHT22;17990;49.548;9.730;2022-11-03T01:39:18;3.50;99.90
16736;DHT22;17990;49.548;9.730;2022-11-03T01:41:46;3.50;99.90
16736;DHT22;17990;49.548;9.730;2022-11-03T01:44:29;3.50;99.90
16736;DHT22;17990;49.548;9.730;2022-11-03T01:47:02;3.40;99.90
16736;DHT22;17990;49.548;9.730;2022-11-03T01:49:37;3.40;99.90
16736;DHT22;17990;49.548;9.730;2022-11-03T01:52:12;3.50;99.90
16736;DHT22;17990;49.548;9.730;2022-11-03T01:54:44;3.50;99.90
16736;DHT22;17990;49.548;9.730;2022-11-03T01:57:14;3.50;99.90
16736;DHT22;17990;49.548;9.730;2022-11-03T01:59:44;3.50;99.90
16736;DHT22;17990;49.548;9.730;2022-11-03T02:02:11;3.50;99.90
16736;DHT22;17990;49.548;9.730;2022-11-03T02:04:39;3.40;99.90
16736;DHT22;17990;49.548;9.730;2022-11-03T02:07:16;3.40;99.90
16736;DHT22;17990;49.548;9.730;2022-11-03T02:09:48;3.40;99.90
16736;DHT22;17990;49.548;9.730;2022-11-03T02:12:15;3.40;99.90
16736;DHT22;17990;49.548;9.730;2022-11-03T02:14:48;3.40;99.90
16736;DHT22;17990;49.548;9.730;2022-11-03T02:17:19;3.30;99.90
16736;DHT22;17990;49.548;9.730;2022-11-03T02:19:49;3.40;99.90
16736;DHT22;17990;49.548;9.730;2022-11-03T02:22:42;3.30;99.90
16736;DHT22;17990;49.548;9.730;2022-11-03T02:25:31;3.30;99.90
16736;DHT22;17990;49.548;9.730;2022-11-03T02:28:08;3.20;99.90
16736;DHT22;17990;49.548;9.730;2022-11-03T02:30:40;3.20;99.90
16736;DHT22;17990;49.548;9.730;2022-11-03T02:33:16;3.20;99.90
16736;DHT22;17990;49.548;9.730;2022-11-03T02:35:52;3.20;99.90
16736;DHT22;17990;49.548;9.730;2022-11-03T02:38:24;3.20;99.90
16736;DHT22;17990;49.548;9.730;2022-11-03T02:40:54;3.20;99.90
16736;DHT22;17990;49.548;9.730;2022-11-03T02:43:23;3.20;99.90
16736;DHT22;17990;49.548;9.730;2022-11-03T02:45:51;3.20;99.90
16736;DHT22;17990;49.548;9.730;2022-11-03T02:48:19;3.20;99.90
16736;DHT22;17990;49.548;9.730;2022-11-03T02:50:46;3.20;99.90
16736;DHT22;17990;49.548;9.730;2022-11-03T02:53:15;3.20;99.90
16736;DHT22;17990;49.548;9.730;2022-11-03T02:55:47;3.20;99.90
16736;DHT22;17990;49.548;9.730;2022-11-03T02:58:23;3.20;99.90
16736;DHT22;17990;49.548;9.730;2022-11-03T03:00:54;3.20;99.90
16736;DHT22;17990;49.548;9.730;2022-11-03T03:03:27;3.10;99.90
16736;DHT22;17990;49.548;9.730;2022-11-03T03:06:01;3.10;99.90
16736;DHT22;17990;49.548;9.730;2022-11-03T03:08:32;3.10;99.90
16736;DHT22;17990;49.548;9.730;2022-11-03T03:11:01;3.10;99.90
16736;DHT22;17990;49.548;9.730;2022-11-03T03:13:30;3.10;99.90
16736;DHT22;17990;49.548;9.730;2022-11-03T03:16:05;3.10;99.90
16736;DHT22;17990;49.548;9.730;2022-11-03T03:18:44;3.10;99.90
16736;DHT22;17990;49.548;9.730;2022-11-03T03:21:16;3.00;99.90
16736;DHT22;17990;49.548;9.730;2022-11-03T03:23:49;3.00;99.90
16736;DHT22;17990;49.548;9.730;2022-11-03T03:26:23;3.00;99.90
16736;DHT22;17990;49.548;9.730;2022-11-03T03:28:55;2.90;99.90
16736;DHT22;17990;49.548;9.730;2022-11-03T03:31:25;2.90;99.90
16736;DHT22;17990;49.548;9.730;2022-11-03T03:33:53;2.90;99.90
16736;DHT22;17990;49.548;9.730;2022-11-03T03:36:23;2.90;99.90
16736;DHT22;17990;49.548;9.730;2022-11-03T03:38:55;2.90;99.90
16736;DHT22;17990;49.548;9.730;2022-11-03T03:41:23;2.90;99.90
16736;DHT22;17990;49.548;9.730;2022-11-03T03:43:54;2.90;99.90
16736;DHT22;17990;49.548;9.730;2022-11-03T03:46:25;2.90;99.90
16736;DHT22;17990;49.548;9.730;2022-11-03T03:48:54;2.80;99.90
16736;DHT22;17990;49.548;9.730;2022-11-03T03:51:24;2.80;99.90
16736;DHT22;17990;49.548;9.730;2022-11-03T03:53:52;2.80;99.90
16736;DHT22;17990;49.548;9.730;2022-11-03T03:56:22;2.80;99.90
16736;DHT22;17990;49.548;9.730;2022-11-03T03:58:53;2.80;99.90
16736;DHT22;17990;49.548;9.730;2022-11-03T04:01:20;2.80;99.90
16736;DHT22;17990;49.548;9.730;2022-11-03T04:03:47;2.80;99.90
16736;DHT22;17990;49.548;9.730;2022-11-03T04:06:13;2.80;99.90
16736;DHT22;17990;49.548;9.730;2022-11-03T04:08:40;2.80;99.90
16736;DHT22;17990;49.548;9.730;2022-11-03T04:11:07;2.80;99.90
16736;DHT22;17990;49.548;9.730;2022-11-03T04:13:55;2.70;99.90
16736;DHT22;17990;49.548;9.730;2022-11-03T04:16:40;2.70;99.90
16736;DHT22;17990;49.548;9.730;2022-11-03T04:19:25;2.80;99.90
16736;DHT22;17990;49.548;9.730;2022-11-03T04:22:09;2.80;99.90
16736;DHT22;17990;49.548;9.730;2022-11-03T04:24:43;2.80;99.90
16736;DHT22;17990;49.548;9.730;2022-11-03T04:27:29;2.80;99.90
16736;DHT22;17990;49.548;9.730;2022-11-03T04:30:05;2.80;99.90
16736;DHT22;17990;49.548;9.730;2022-11-03T04:32:36;2.80;99.90
16736;DHT22;17990;49.548;9.730;2022-11-03T04:35:13;2.70;99.90
16736;DHT22;17990;49.548;9.730;2022-11-03T04:37:41;2.70;99.90
16736;DHT22;17990;49.548;9.730;2022-11-03T04:40:13;2.60;99.90
16736;DHT22;17990;49.548;9.730;2022-11-03T04:42:42;2.60;99.90
16736;DHT22;17990;49.548;9.730;2022-11-03T04:45:21;2.60;99.90
16736;DHT22;17990;49.548;9.730;2022-11-03T04:47:50;2.60;99.90
16736;DHT22;17990;49.548;9.730;2022-11-03T04:50:20;2.60;99.90
16736;DHT22;17990;49.548;9.730;2022-11-03T04:52:53;2.60;99.90
16736;DHT22;17990;49.548;9.730;2022-11-03T04:55:21;2.60;99.90
16736;DHT22;17990;49.548;9.730;2022-11-03T04:57:53;2.60;99.90
16736;DHT22;17990;49.548;9.730;2022-11-03T05:00:24;2.50;99.90
16736;DHT22;17990;49.548;9.730;2022-11-03T05:02:51;2.50;99.90
16736;DHT22;17990;49.548;9.730;2022-11-03T05:05:20;2.50;99.90
16736;DHT22;17990;49.548;9.730;2022-11-03T05:07:49;2.50;99.90
16736;DHT22;17990;49.548;9.730;2022-11-03T05:10:19;2.50;99.90
16736;DHT22;17990;49.548;9.730;2022-11-03T05:12:48;2.50;99.90
16736;DHT22;17990;49.548;9.730;2022-11-03T05:15:33;2.50;99.90
16736;DHT22;17990;49.548;9.730;2022-11-03T05:18:14;2.40;99.90
16736;DHT22;17990;49.548;9.730;2022-11-03T05:20:48;2.40;99.90
16736;DHT22;17990;49.548;9.730;2022-11-03T05:23:18;2.50;99.90
16736;DHT22;17990;49.548;9.730;2022-11-03T05:25:48;2.50;99.90
16736;DHT22;17990;49.548;9.730;2022-11-03T05:28:23;2.50;99.90
16736;DHT22;17990;49.548;9.730;2022-11-03T05:31:18;2.40;99.90
16736;DHT22;17990;49.548;9.730;2022-11-03T05:33:51;2.40;99.90
16736;DHT22;17990;49.548;9.730;2022-11-03T05:36:22;2.40;99.90
16736;DHT22;17990;49.548;9.730;2022-11-03T05:38:52;2.40;99.90
16736;DHT22;17990;49.548;9.730;2022-11-03T05:41:22;2.50;99.90
16736;DHT22;17990;49.548;9.730;2022-11-03T05:43:55;2.60;99.90
16736;DHT22;17990;49.548;9.730;2022-11-03T05:46:28;2.60;99.90
16736;DHT22;17990;49.548;9.730;2022-11-03T05:48:57;2.60;99.90
16736;DHT22;17990;49.548;9.730;2022-11-03T05:51:30;2.50;99.90
16736;DHT22;17990;49.548;9.730;2022-11-03T05:54:01;2.50;99.90
16736;DHT22;17990;49.548;9.730;2022-11-03T05:56:30;2.40;99.90
16736;DHT22;17990;49.548;9.730;2022-11-03T05:58:59;2.30;99.90
16736;DHT22;17990;49.548;9.730;2022-11-03T06:01:31;2.30;99.90
16736;DHT22;17990;49.548;9.730;2022-11-03T06:04:01;2.30;99.90
16736;DHT22;17990;49.548;9.730;2022-11-03T06:06:34;2.30;99.90
16736;DHT22;17990;49.548;9.730;2022-11-03T06:09:09;2.30;99.90
16736;DHT22;17990;49.548;9.730;2022-11-03T06:11:39;2.30;99.90
16736;DHT22;17990;49.548;9.730;2022-11-03T06:14:20;2.40;99.90
16736;DHT22;17990;49.548;9.730;2022-11-03T06:16:50;2.40;99.90
16736;DHT22;17990;49.548;9.730;2022-11-03T06:19:24;2.30;99.90
16736;DHT22;17990;49.548;9.730;2022-11-03T06:21:54;2.30;99.90
16736;DHT22;17990;49.548;9.730;2022-11-03T06:24:28;2.30;99.90
16736;DHT22;17990;49.548;9.730;2022-11-03T06:26:56;2.40;99.90
16736;DHT22;17990;49.548;9.730;2022-11-03T06:29:24;2.40;99.90
16736;DHT22;17990;49.548;9.730;2022-11-03T06:31:54;2.40;99.90
16736;DHT22;17990;49.548;9.730;2022-11-03T06:34:31;2.50;99.90
16736;DHT22;17990;49.548;9.730;2022-11-03T06:37:09;2.60;99.90
16736;DHT22;17990;49.548;9.730;2022-11-03T06:39:40;2.50;99.90
16736;DHT22;17990;49.548;9.730;2022-11-03T06:42:10;2.50;99.90
16736;DHT22;17990;49.548;9.730;2022-11-03T06:44:39;2.60;99.90
16736;DHT22;17990;49.548;9.730;2022-11-03T06:47:19;2.60;99.90
16736;DHT22;17990;49.548;9.730;2022-11-03T06:49:49;2.70;99.90
16736;DHT22;17990;49.548;9.730;2022-11-03T06:52:25;2.60;99.90
16736;DHT22;17990;49.548;9.730;2022-11-03T06:57:52;2.70;99.90
16736;DHT22;17990;49.548;9.730;2022-11-03T07:00:22;2.80;99.90
16736;DHT22;17990;49.548;9.730;2022-11-03T07:02:56;2.90;99.90
16736;DHT22;17990;49.548;9.730;2022-11-03T07:05:28;2.90;99.90
16736;DHT22;17990;49.548;9.730;2022-11-03T07:07:57;2.90;99.90
16736;DHT22;17990;49.548;9.730;2022-11-03T07:10:26;3.00;99.90
16736;DHT22;17990;49.548;9.730;2022-11-03T07:12:57;3.20;99.90
16736;DHT22;17990;49.548;9.730;2022-11-03T07:15:27;3.30;99.90
16736;DHT22;17990;49.548;9.730;2022-11-03T07:17:58;3.30;99.90
16736;DHT22;17990;49.548;9.730;2022-11-03T07:20:26;3.30;99.90
16736;DHT22;17990;49.548;9.730;2022-11-03T07:22:54;3.40;99.90
16736;DHT22;17990;49.548;9.730;2022-11-03T07:25:22;3.50;99.90
16736;DHT22;17990;49.548;9.730;2022-11-03T07:27:50;3.60;99.90
16736;DHT22;17990;49.548;9.730;2022-11-03T07:30:20;3.80;99.90
16736;DHT22;17990;49.548;9.730;2022-11-03T07:32:51;4.00;99.90
16736;DHT22;17990;49.548;9.730;2022-11-03T07:35:29;4.10;99.90
16736;DHT22;17990;49.548;9.730;2022-11-03T07:38:01;4.20;99.90
16736;DHT22;17990;49.548;9.730;2022-11-03T07:40:32;4.30;99.90
16736;DHT22;17990;49.548;9.730;2022-11-03T07:43:07;4.60;99.90
16736;DHT22;17990;49.548;9.730;2022-11-03T07:45:38;4.50;99.90
16736;DHT22;17990;49.548;9.730;2022-11-03T07:48:19;4.40;99.90
16736;DHT22;17990;49.548;9.730;2022-11-03T07:50:50;4.30;99.90
16736;DHT22;17990;49.548;9.730;2022-11-03T07:53:21;4.30;99.90
16736;DHT22;17990;49.548;9.730;2022-11-03T07:55:53;4.40;99.90
16736;DHT22;17990;49.548;9.730;2022-11-03T07:58:23;4.50;99.90
16736;DHT22;17990;49.548;9.730;2022-11-03T08:00:54;4.80;99.90
16736;DHT22;17990;49.548;9.730;2022-11-03T08:03:35;5.10;99.90
16736;DHT22;17990;49.548;9.730;2022-11-03T08:06:08;5.50;99.90
16736;DHT22;17990;49.548;9.730;2022-11-03T08:08:35;5.70;99.90
16736;DHT22;17990;49.548;9.730;2022-11-03T08:11:02;5.70;99.90
16736;DHT22;17990;49.548;9.730;2022-11-03T08:13:30;6.00;99.90
16736;DHT22;17990;49.548;9.730;2022-11-03T08:15:57;6.30;99.90
16736;DHT22;17990;49.548;9.730;2022-11-03T08:18:24;6.40;99.90
16736;DHT22;17990;49.548;9.730;2022-11-03T08:20:51;6.30;99.90
16736;DHT22;17990;49.548;9.730;2022-11-03T08:23:19;6.30;99.90
16736;DHT22;17990;49.548;9.730;2022-11-03T08:25:46;6.50;99.90
16736;DHT22;17990;49.548;9.730;2022-11-03T08:28:13;6.50;99.90
16736;DHT22;17990;49.548;9.730;2022-11-03T08:30:40;6.50;99.90
16736;DHT22;17990;49.548;9.730;2022-11-03T08:33:07;6.60;99.90
16736;DHT22;17990;49.548;9.730;2022-11-03T08:35:34;6.40;99.90
16736;DHT22;17990;49.548;9.730;2022-11-03T08:38:01;6.40;99.90
16736;DHT22;17990;49.548;9.730;2022-11-03T08:40:29;6.20;99.90
16736;DHT22;17990;49.548;9.730;2022-11-03T08:42:56;6.10;99.90
16736;DHT22;17990;49.548;9.730;2022-11-03T08:45:24;6.10;99.90
16736;DHT22;17990;49.548;9.730;2022-11-03T08:47:51;6.00;99.90
16736;DHT22;17990;49.548;9.730;2022-11-03T08:50:18;6.00;99.90
16736;DHT22;17990;49.548;9.730;2022-11-03T08:52:45;6.20;99.90
16736;DHT22;17990;49.548;9.730;2022-11-03T08:55:12;6.20;99.90
16736;DHT22;17990;49.548;9.730;2022-11-03T08:57:40;6.30;99.90
16736;DHT22;17990;49.548;9.730;2022-11-03T09:00:08;6.60;99.90
16736;DHT22;17990;49.548;9.730;2022-11-03T09:02:39;6.90;99.90
16736;DHT22;17990;49.548;9.730;2022-11-03T09:05:07;7.00;99.90
16736;DHT22;17990;49.548;9.730;2022-11-03T09:07:37;7.20;99.90
16736;DHT22;17990;49.548;9.730;2022-11-03T09:10:06;7.10;99.90
16736;DHT22;17990;49.548;9.730;2022-11-03T09:12:34;7.00;99.90
16736;DHT22;17990;49.548;9.730;2022-11-03T09:15:03;7.20;99.90
16736;DHT22;17990;49.548;9.730;2022-11-03T09:17:31;7.20;99.90
16736;DHT22;17990;49.548;9.730;2022-11-03T09:19:58;7.20;99.90
16736;DHT22;17990;49.548;9.730;2022-11-03T09:22:25;7.20;99.90
16736;DHT22;17990;49.548;9.730;2022-11-03T09:24:52;7.20;99.90
16736;DHT22;17990;49.548;9.730;2022-11-03T09:27:19;7.30;99.90
16736;DHT22;17990;49.548;9.730;2022-11-03T09:29:46;7.40;99.90
16736;DHT22;17990;49.548;9.730;2022-11-03T09:32:14;7.50;99.90
16736;DHT22;17990;49.548;9.730;2022-11-03T09:34:41;7.60;99.90
16736;DHT22;17990;49.548;9.730;2022-11-03T09:37:08;7.70;99.90
16736;DHT22;17990;49.548;9.730;2022-11-03T09:39:35;7.80;99.90
16736;DHT22;17990;49.548;9.730;2022-11-03T09:42:03;7.80;99.90
16736;DHT22;17990;49.548;9.730;2022-11-03T09:44:31;7.60;99.90
16736;DHT22;17990;49.548;9.730;2022-11-03T09:46:59;7.70;99.90
16736;DHT22;17990;49.548;9.730;2022-11-03T09:49:29;7.80;99.90
16736;DHT22;17990;49.548;9.730;2022-11-03T09:51:57;8.00;99.90
16736;DHT22;17990;49.548;9.730;2022-11-03T09:54:26;8.20;99.90
16736;DHT22;17990;49.548;9.730;2022-11-03T09:56:55;8.40;99.90
16736;DHT22;17990;49.548;9.730;2022-11-03T09:59:23;8.60;99.90
16736;DHT22;17990;49.548;9.730;2022-11-03T10:01:51;8.90;99.90
16736;DHT22;17990;49.548;9.730;2022-11-03T10:04:23;9.10;99.90
16736;DHT22;17990;49.548;9.730;2022-11-03T10:06:54;9.20;99.90
16736;DHT22;17990;49.548;9.730;2022-11-03T10:09:22;9.40;99.90
16736;DHT22;17990;49.548;9.730;2022-11-03T10:11:52;9.60;99.90
16736;DHT22;17990;49.548;9.730;2022-11-03T10:14:20;9.70;99.90
16736;DHT22;17990;49.548;9.730;2022-11-03T10:16:54;9.90;99.90
16736;DHT22;17990;49.548;9.730;2022-11-03T10:19:24;10.00;99.90
16736;DHT22;17990;49.548;9.730;2022-11-03T10:21:51;10.20;99.90
16736;DHT22;17990;49.548;9.730;2022-11-03T10:24:20;10.40;99.90
16736;DHT22;17990;49.548;9.730;2022-11-03T10:26:48;10.50;99.90
16736;DHT22;17990;49.548;9.730;2022-11-03T10:29:18;10.50;99.90
16736;DHT22;17990;49.548;9.730;2022-11-03T10:31:47;10.60;99.90
16736;DHT22;17990;49.548;9.730;2022-11-03T10:34:39;10.70;99.90
16736;DHT22;17990;49.548;9.730;2022-11-03T10:37:15;10.80;99.90
16736;DHT22;17990;49.548;9.730;2022-11-03T10:39:47;10.90;99.90
16736;DHT22;17990;49.548;9.730;2022-11-03T10:42:17;11.00;99.90
16736;DHT22;17990;49.548;9.730;2022-11-03T10:44:46;11.10;99.90
16736;DHT22;17990;49.548;9.730;2022-11-03T10:47:31;11.20;99.90
16736;DHT22;17990;49.548;9.730;2022-11-03T10:50:00;11.20;99.90
16736;DHT22;17990;49.548;9.730;2022-11-03T10:52:40;11.20;99.90
16736;DHT22;17990;49.548;9.730;2022-11-03T10:55:09;11.30;99.90
16736;DHT22;17990;49.548;9.730;2022-11-03T10:57:36;11.30;99.90
16736;DHT22;17990;49.548;9.730;2022-11-03T11:00:04;11.30;99.90
16736;DHT22;17990;49.548;9.730;2022-11-03T11:02:34;11.30;99.90
16736;DHT22;17990;49.548;9.730;2022-11-03T11:05:07;11.40;99.90
16736;DHT22;17990;49.548;9.730;2022-11-03T11:07:39;11.70;99.90
16736;DHT22;17990;49.548;9.730;2022-11-03T11:10:13;11.80;99.90
16736;DHT22;17990;49.548;9.730;2022-11-03T11:13:03;12.00;99.90
16736;DHT22;17990;49.548;9.730;2022-11-03T11:15:37;12.10;99.90
16736;DHT22;17990;49.548;9.730;2022-11-03T11:18:05;12.20;99.90
16736;DHT22;17990;49.548;9.730;2022-11-03T11:20:35;12.30;99.90
16736;DHT22;17990;49.548;9.730;2022-11-03T11:26:17;11.90;99.90
16736;DHT22;17990;49.548;9.730;2022-11-03T11:36:01;12.20;99.90
16736;DHT22;17990;49.548;9.730;2022-11-03T11:39:09;12.30;99.90
16736;DHT22;17990;49.548;9.730;2022-11-03T11:42:10;12.40;99.90
16736;DHT22;17990;49.548;9.730;2022-11-03T11:44:48;12.60;99.90
16736;DHT22;17990;49.548;9.730;2022-11-03T11:47:48;12.70;99.90
16736;DHT22;17990;49.548;9.730;2022-11-03T11:50:30;12.80;99.90
16736;DHT22;17990;49.548;9.730;2022-11-03T11:53:08;12.70;99.90
16736;DHT22;17990;49.548;9.730;2022-11-03T11:55:40;12.70;99.90
16736;DHT22;17990;49.548;9.730;2022-11-03T11:58:17;12.80;99.90
16736;DHT22;17990;49.548;9.730;2022-11-03T12:01:00;12.80;99.90
16736;DHT22;17990;49.548;9.730;2022-11-03T12:03:33;12.70;99.90
16736;DHT22;17990;49.548;9.730;2022-11-03T12:06:02;12.80;99.90
16736;DHT22;17990;49.548;9.730;2022-11-03T12:08:30;12.90;99.90
16736;DHT22;17990;49.548;9.730;2022-11-03T12:11:00;13.10;99.90
16736;DHT22;17990;49.548;9.730;2022-11-03T12:13:47;13.10;99.90
16736;DHT22;17990;49.548;9.730;2022-11-03T12:16:32;13.20;99.90
16736;DHT22;17990;49.548;9.730;2022-11-03T12:19:34;13.30;99.90
16736;DHT22;17990;49.548;9.730;2022-11-03T12:22:04;13.20;99.90
16736;DHT22;17990;49.548;9.730;2022-11-03T12:24:48;12.90;99.90
16736;DHT22;17990;49.548;9.730;2022-11-03T12:27:19;12.90;99.90
16736;DHT22;17990;49.548;9.730;2022-11-03T12:30:04;13.10;99.90
16736;DHT22;17990;49.548;9.730;2022-11-03T12:32:34;13.10;99.90
16736;DHT22;17990;49.548;9.730;2022-11-03T12:35:01;13.10;99.90
16736;DHT22;17990;49.548;9.730;2022-11-03T12:37:28;13.20;99.90
16736;DHT22;17990;49.548;9.730;2022-11-03T12:39:55;13.20;99.90
16736;DHT22;17990;49.548;9.730;2022-11-03T12:42:22;13.30;99.90
16736;DHT22;17990;49.548;9.730;2022-11-03T12:44:50;13.30;99.90
16736;DHT22;17990;49.548;9.730;2022-11-03T12:47:19;13.30;99.90
16736;DHT22;17990;49.548;9.730;2022-11-03T12:49:46;13.20;99.90
16736;DHT22;17990;49.548;9.730;2022-11-03T12:52:13;13.10;99.90
16736;DHT22;17990;49.548;9.730;2022-11-03T12:54:41;13.00;99.90
16736;DHT22;17990;49.548;9.730;2022-11-03T12:57:07;13.00;99.90
16736;DHT22;17990;49.548;9.730;2022-11-03T12:59:34;12.90;99.90
16736;DHT22;17990;49.548;9.730;2022-11-03T13:02:01;12.90;99.90
16736;DHT22;17990;49.548;9.730;2022-11-03T13:04:30;12.80;99.90
16736;DHT22;17990;49.548;9.730;2022-11-03T13:06:56;12.70;99.90
16736;DHT22;17990;49.548;9.730;2022-11-03T13:09:23;12.70;99.90
16736;DHT22;17990;49.548;9.730;2022-11-03T13:11:50;12.70;99.90
16736;DHT22;17990;49.548;9.730;2022-11-03T13:14:35;12.70;99.90
16736;DHT22;17990;49.548;9.730;2022-11-03T13:17:02;12.70;99.90
16736;DHT22;17990;49.548;9.730;2022-11-03T13:19:30;12.70;99.90
16736;DHT22;17990;49.548;9.730;2022-11-03T13:21:57;12.60;99.90
16736;DHT22;17990;49.548;9.730;2022-11-03T13:24:24;12.40;99.90
16736;DHT22;17990;49.548;9.730;2022-11-03T13:26:51;12.30;99.90
16736;DHT22;17990;49.548;9.730;2022-11-03T13:29:18;12.30;99.90
16736;DHT22;17990;49.548;9.730;2022-11-03T13:31:45;12.30;99.90
16736;DHT22;17990;49.548;9.730;2022-11-03T13:34:11;12.30;99.90
16736;DHT22;17990;49.548;9.730;2022-11-03T13:36:40;12.30;99.90
16736;DHT22;17990;49.548;9.730;2022-11-03T13:39:07;12.40;99.90
16736;DHT22;17990;49.548;9.730;2022-11-03T13:41:33;12.40;99.90
16736;DHT22;17990;49.548;9.730;2022-11-03T13:44:00;12.40;99.90
16736;DHT22;17990;49.548;9.730;2022-11-03T13:46:27;12.20;99.90
16736;DHT22;17990;49.548;9.730;2022-11-03T13:48:54;12.20;99.90
16736;DHT22;17990;49.548;9.730;2022-11-03T13:51:21;12.20;99.90
16736;DHT22;17990;49.548;9.730;2022-11-03T13:53:49;12.20;99.90
16736;DHT22;17990;49.548;9.730;2022-11-03T13:56:16;12.10;99.90
16736;DHT22;17990;49.548;9.730;2022-11-03T13:58:43;12.10;99.90
16736;DHT22;17990;49.548;9.730;2022-11-03T14:01:10;12.10;99.90
16736;DHT22;17990;49.548;9.730;2022-11-03T14:03:37;12.10;99.90
16736;DHT22;17990;49.548;9.730;2022-11-03T14:06:05;12.10;99.90
16736;DHT22;17990;49.548;9.730;2022-11-03T14:08:32;12.10;99.90
16736;DHT22;17990;49.548;9.730;2022-11-03T14:11:00;12.10;99.90
16736;DHT22;17990;49.548;9.730;2022-11-03T14:13:47;12.10;99.90
16736;DHT22;17990;49.548;9.730;2022-11-03T14:16:13;12.10;99.90
16736;DHT22;17990;49.548;9.730;2022-11-03T14:18:40;12.00;99.90
16736;DHT22;17990;49.548;9.730;2022-11-03T14:21:07;12.00;99.90
16736;DHT22;17990;49.548;9.730;2022-11-03T14:23:34;12.00;99.90
16736;DHT22;17990;49.548;9.730;2022-11-03T14:26:03;12.00;99.90
16736;DHT22;17990;49.548;9.730;2022-11-03T14:28:30;11.90;99.90
16736;DHT22;17990;49.548;9.730;2022-11-03T14:30:57;11.80;99.90
16736;DHT22;17990;49.548;9.730;2022-11-03T14:33:25;11.80;99.90
16736;DHT22;17990;49.548;9.730;2022-11-03T14:35:52;11.70;99.90
16736;DHT22;17990;49.548;9.730;2022-11-03T14:38:20;11.70;99.90
16736;DHT22;17990;49.548;9.730;2022-11-03T14:40:47;11.70;99.90
16736;DHT22;17990;49.548;9.730;2022-11-03T14:43:33;11.70;99.90
16736;DHT22;17990;49.548;9.730;2022-11-03T14:46:00;11.80;99.90
16736;DHT22;17990;49.548;9.730;2022-11-03T14:48:27;11.80;99.90
16736;DHT22;17990;49.548;9.730;2022-11-03T14:50:53;11.80;99.90
16736;DHT22;17990;49.548;9.730;2022-11-03T14:53:21;11.80;99.90
16736;DHT22;17990;49.548;9.730;2022-11-03T14:55:48;11.70;99.90
16736;DHT22;17990;49.548;9.730;2022-11-03T14:58:15;11.70;99.90
16736;DHT22;17990;49.548;9.730;2022-11-03T15:00:43;11.70;99.90
16736;DHT22;17990;49.548;9.730;2022-11-03T15:03:10;11.70;99.90
16736;DHT22;17990;49.548;9.730;2022-11-03T15:05:37;11.70;99.90
16736;DHT22;17990;49.548;9.730;2022-11-03T15:08:10;11.60;99.90
16736;DHT22;17990;49.548;9.730;2022-11-03T15:10:37;11.60;99.90
16736;DHT22;17990;49.548;9.730;2022-11-03T15:13:04;11.50;99.90
16736;DHT22;17990;49.548;9.730;2022-11-03T15:15:31;11.50;99.90
16736;DHT22;17990;49.548;9.730;2022-11-03T15:18:01;11.50;99.90
16736;DHT22;17990;49.548;9.730;2022-11-03T15:20:28;11.50;99.90
16736;DHT22;17990;49.548;9.730;2022-11-03T15:22:56;11.50;99.90
16736;DHT22;17990;49.548;9.730;2022-11-03T15:25:23;11.50;99.90
16736;DHT22;17990;49.548;9.730;2022-11-03T15:27:50;11.40;99.90
16736;DHT22;17990;49.548;9.730;2022-11-03T15:30:17;11.30;99.90
16736;DHT22;17990;49.548;9.730;2022-11-03T15:32:44;11.30;99.90
16736;DHT22;17990;49.548;9.730;2022-11-03T15:35:12;11.20;99.90
16736;DHT22;17990;49.548;9.730;2022-11-03T15:37:40;11.20;99.90
16736;DHT22;17990;49.548;9.730;2022-11-03T15:40:11;11.20;99.90
16736;DHT22;17990;49.548;9.730;2022-11-03T15:42:38;11.10;99.90
16736;DHT22;17990;49.548;9.730;2022-11-03T15:45:09;11.10;99.90
16736;DHT22;17990;49.548;9.730;2022-11-03T15:47:37;11.10;99.90
16736;DHT22;17990;49.548;9.730;2022-11-03T15:50:05;11.00;99.90
16736;DHT22;17990;49.548;9.730;2022-11-03T15:52:34;10.90;99.90
16736;DHT22;17990;49.548;9.730;2022-11-03T15:55:02;10.90;99.90
16736;DHT22;17990;49.548;9.730;2022-11-03T15:57:30;10.90;99.90
16736;DHT22;17990;49.548;9.730;2022-11-03T15:59:57;10.90;99.90
16736;DHT22;17990;49.548;9.730;2022-11-03T16:02:24;10.90;99.90
16736;DHT22;17990;49.548;9.730;2022-11-03T16:04:52;10.80;99.90
16736;DHT22;17990;49.548;9.730;2022-11-03T16:07:19;10.80;99.90
16736;DHT22;17990;49.548;9.730;2022-11-03T16:09:47;10.70;99.90
16736;DHT22;17990;49.548;9.730;2022-11-03T16:12:14;10.60;99.90
16736;DHT22;17990;49.548;9.730;2022-11-03T16:14:41;10.50;99.90